Hauptseite
METAR-TAF:

METAR-TAF

Flughäfen :

Flughafen Lugano-Agno

Lugano, Schweiz

Breite: 46-00N, Länge: 008-58E, Höhe: 273 m

Beobachtung

Neuester Wetterbericht von vor 33 Minuten, um 05:20 UTC
Wind 2 kt aus unterschiedlichen Richtungen
Temperatur 6°C
Luftfeuchtigkeit 93%
Luftdruck 1004 hPa
Sichtweite 10 km oder mehr
Durchbrochene Bewölkung
Leichtregen

METAR: LSZA 170520Z AUTO VRB02KT 9999 -RA BKN/// 06/05 Q1004

Zeit: 06:53 (05:53 UTC)

Prognose

Neuester Wetterbericht von vor 28 Minuten, um 05:25 UTC
Gültige Prognose vom 17 um 06 UTC bis 17 um 15 UTC
Wind 3 kt aus unterschiedlichen Richtungen
Sichtweite: 7000 m
Durchbrochene Bewölkung in der Höhe von 3500 ft
Leichtregen

TAF: LSZA 170525Z 1706/1715 VRB03KT 7000 -RA BKN035

Wetterbeobachtungen und Prognosen von mehr als 4000 Flughäfen (METAR und TAF Bericht).

Die verfügbaren Stationen werden durch gelbe und rote Markierungen auf der Karte dargestellt.

Führen Sie die Maus auf sie, um den Namen der Station zu sehen.

Darauf klicken, um die Beobachtung von Wetterbeobachtungen und Prognosen zu sehen.

Um die Karte zu ändern : klicken Sie auf den grünen Tasten mit einem schwarzen Kreuz Zum Vergrößern, auf den grünen Button mit einem Gedankenstrich zu verkleinern, oder auf die grünen Pfeile für benachbarte Karten.


METAR-TAF: